createdAt,value
2023-05-01T00:01:47.537Z,11.20
2023-05-01T00:04:17.176Z,11.28
2023-05-01T00:06:45.449Z,11.29
2023-05-01T00:09:13.639Z,11.25
2023-05-01T00:11:41.981Z,11.12
2023-05-01T00:14:09.999Z,11.19
2023-05-01T00:16:39.517Z,11.24
2023-05-01T00:19:08.852Z,11.32
2023-05-01T00:21:37.253Z,11.37
2023-05-01T00:24:05.827Z,11.36
2023-05-01T00:26:33.910Z,11.44
2023-05-01T00:29:03.157Z,11.10
2023-05-01T00:31:37.190Z,10.90
2023-05-01T00:34:06.581Z,10.82
2023-05-01T00:36:34.834Z,10.98
2023-05-01T00:39:02.828Z,10.89
2023-05-01T00:41:30.796Z,10.69
2023-05-01T00:43:58.980Z,10.64
2023-05-01T00:46:27.712Z,10.71
2023-05-01T00:48:55.873Z,10.59
2023-05-01T00:51:28.157Z,10.48
2023-05-01T00:54:00.970Z,10.70
2023-05-01T00:56:29.285Z,10.85
2023-05-01T00:58:57.571Z,10.94
2023-05-01T01:01:26.283Z,10.88
2023-05-01T01:03:54.843Z,10.72
2023-05-01T01:06:34.906Z,10.58
2023-05-01T01:09:14.653Z,10.72
2023-05-01T01:11:53.408Z,10.72
2023-05-01T01:14:27.677Z,10.78
2023-05-01T01:17:04.580Z,10.61
2023-05-01T01:20:02.863Z,10.52
2023-05-01T01:22:36.580Z,10.52
2023-05-01T01:25:31.155Z,10.27
2023-05-01T01:28:36.975Z,10.60
2023-05-01T01:31:15.299Z,10.68
2023-05-01T01:34:09.574Z,10.81
2023-05-01T01:36:44.649Z,10.85
2023-05-01T01:39:20.276Z,10.88
2023-05-01T01:41:52.565Z,10.90
2023-05-01T01:44:29.687Z,10.82
2023-05-01T01:47:00.854Z,10.77
2023-05-01T01:49:32.644Z,10.68
2023-05-01T01:52:03.153Z,10.62
2023-05-01T01:54:34.684Z,10.67
2023-05-01T01:57:08.527Z,10.50
2023-05-01T01:59:36.784Z,10.38
2023-05-01T02:02:06.818Z,10.49
2023-05-01T02:04:37.520Z,10.38
2023-05-01T02:07:07.283Z,10.36
2023-05-01T02:09:37.136Z,10.27
2023-05-01T02:12:08.476Z,10.23
2023-05-01T02:14:38.461Z,10.09
2023-05-01T02:17:07.656Z,10.15
2023-05-01T02:19:40.845Z,10.13
2023-05-01T02:22:10.466Z,10.42
2023-05-01T02:24:40.014Z,10.50
2023-05-01T02:27:12.599Z,10.59
2023-05-01T02:29:41.006Z,10.63
2023-05-01T02:32:09.274Z,10.63
2023-05-01T02:34:42.173Z,10.37
2023-05-01T02:37:12.583Z,10.25
2023-05-01T02:39:43.163Z,10.40
2023-05-01T02:42:14.122Z,10.58
2023-05-01T02:44:50.925Z,10.64
2023-05-01T02:47:22.021Z,10.67
2023-05-01T02:49:53.943Z,10.61
2023-05-01T02:52:23.174Z,10.69
2023-05-01T02:55:00.617Z,10.66
2023-05-01T02:57:29.355Z,10.68
2023-05-01T02:59:57.728Z,10.69
2023-05-01T03:02:26.130Z,10.80
2023-05-01T03:04:58.873Z,10.76
2023-05-01T03:07:27.049Z,10.78
2023-05-01T03:09:55.503Z,10.88
2023-05-01T03:12:24.011Z,10.84
2023-05-01T03:14:52.516Z,10.85
2023-05-01T03:17:20.475Z,10.49
2023-05-01T03:19:49.557Z,10.32
2023-05-01T03:22:20.228Z,10.19
2023-05-01T03:24:48.269Z,10.46
2023-05-01T03:27:16.405Z,10.69
2023-05-01T03:29:44.538Z,10.92
2023-05-01T03:32:12.729Z,10.90
2023-05-01T03:34:41.277Z,10.09
2023-05-01T03:37:09.277Z,10.43
2023-05-01T03:39:38.936Z,10.67
2023-05-01T03:42:26.279Z,10.84
2023-05-01T03:45:00.499Z,10.83
2023-05-01T03:47:30.329Z,10.94
2023-05-01T03:49:59.074Z,11.03
2023-05-01T03:52:27.725Z,11.18
2023-05-01T03:54:59.527Z,11.24
2023-05-01T03:57:48.326Z,11.02
2023-05-01T04:00:18.952Z,10.88
2023-05-01T04:02:49.296Z,10.90
2023-05-01T04:05:22.135Z,11.00
2023-05-01T04:07:58.220Z,10.80
2023-05-01T04:10:28.379Z,10.64
2023-05-01T04:13:01.323Z,10.80
2023-05-01T04:15:29.208Z,10.85
2023-05-01T04:17:57.774Z,10.93
2023-05-01T04:20:25.864Z,10.88
2023-05-01T04:22:54.988Z,10.96
2023-05-01T04:25:23.001Z,11.06
2023-05-01T04:27:55.640Z,11.12
2023-05-01T04:30:23.631Z,10.97
2023-05-01T04:32:52.811Z,10.86
2023-05-01T04:35:21.113Z,10.99
2023-05-01T04:37:49.078Z,10.96
2023-05-01T04:40:17.455Z,11.09
2023-05-01T04:42:46.069Z,11.09
2023-05-01T04:45:17.219Z,10.98
2023-05-01T04:47:45.314Z,11.10
2023-05-01T04:50:13.325Z,11.25
2023-05-01T04:52:41.626Z,11.31
2023-05-01T04:55:11.425Z,11.29
2023-05-01T04:57:48.300Z,11.34
2023-05-01T05:00:19.102Z,11.42
2023-05-01T05:02:54.218Z,11.37
2023-05-01T05:05:22.554Z,11.47
2023-05-01T05:07:51.479Z,11.55
2023-05-01T05:10:30.274Z,11.56
2023-05-01T05:13:27.382Z,11.57
2023-05-01T05:16:15.761Z,11.51
2023-05-01T05:18:43.903Z,11.58
2023-05-01T05:21:12.398Z,11.61
2023-05-01T05:23:46.060Z,11.35
2023-05-01T05:26:13.980Z,10.82
2023-05-01T05:28:45.179Z,11.13
2023-05-01T05:31:15.210Z,11.54
2023-05-01T05:33:43.344Z,11.72
2023-05-01T05:36:12.034Z,11.73
2023-05-01T05:38:43.234Z,11.74
2023-05-01T05:41:15.281Z,11.83
2023-05-01T05:43:43.453Z,11.90
2023-05-01T05:46:11.687Z,11.89
2023-05-01T05:48:42.135Z,11.71
2023-05-01T05:51:10.709Z,11.74
2023-05-01T05:53:38.756Z,11.82
2023-05-01T05:56:07.809Z,11.75
2023-05-01T05:58:35.960Z,11.78
2023-05-01T06:01:04.196Z,11.63
2023-05-01T06:03:32.753Z,11.79
2023-05-01T06:06:04.683Z,11.90
2023-05-01T06:08:35.425Z,12.02
2023-05-01T06:11:12.244Z,11.97
2023-05-01T06:13:44.930Z,11.94
2023-05-01T06:16:13.021Z,11.82
2023-05-01T06:18:41.099Z,11.51
2023-05-01T06:21:12.104Z,11.59
2023-05-01T06:23:41.584Z,11.81
2023-05-01T06:26:34.802Z,12.01
2023-05-01T06:29:16.709Z,11.99
2023-05-01T06:31:45.753Z,11.61
2023-05-01T06:34:13.777Z,11.61
2023-05-01T06:36:50.842Z,11.65
2023-05-01T06:39:18.817Z,11.36
2023-05-01T06:41:47.485Z,11.83
2023-05-01T06:44:16.371Z,12.25
2023-05-01T06:46:44.436Z,12.37
2023-05-01T06:49:13.889Z,12.56
2023-05-01T06:51:42.002Z,12.58
2023-05-01T06:54:11.382Z,12.59
2023-05-01T06:56:39.760Z,12.72
2023-05-01T06:59:07.723Z,12.81
2023-05-01T07:01:35.826Z,12.93
2023-05-01T07:04:04.090Z,13.10
2023-05-01T07:06:32.570Z,12.91
2023-05-01T07:09:00.567Z,13.01
2023-05-01T07:11:29.944Z,13.21
2023-05-01T07:13:57.924Z,13.31
2023-05-01T07:16:26.137Z,13.17
2023-05-01T07:18:54.087Z,13.11
2023-05-01T07:21:47.474Z,13.28
2023-05-01T07:24:15.312Z,13.46
2023-05-01T07:26:44.699Z,13.66
2023-05-01T07:29:13.269Z,13.77
2023-05-01T07:31:41.938Z,13.85
2023-05-01T07:34:10.272Z,13.85
2023-05-01T07:36:38.808Z,13.94
2023-05-01T07:39:07.345Z,13.19
2023-05-01T07:41:37.636Z,13.40
2023-05-01T07:44:07.010Z,13.71
2023-05-01T07:46:35.241Z,13.98
2023-05-01T07:49:04.241Z,14.15
2023-05-01T07:51:32.658Z,14.01
2023-05-01T07:54:04.875Z,14.04
2023-05-01T07:56:33.343Z,14.19
2023-05-01T07:59:03.586Z,13.47
2023-05-01T08:01:35.121Z,13.66
2023-05-01T08:04:03.094Z,13.82
2023-05-01T08:06:31.833Z,13.29
2023-05-01T08:09:03.075Z,13.83
2023-05-01T08:11:33.445Z,14.11
2023-05-01T08:14:01.418Z,14.38
2023-05-01T08:16:29.427Z,14.27
2023-05-01T08:18:58.852Z,14.43
2023-05-01T08:21:26.832Z,14.04
2023-05-01T08:23:57.038Z,14.21
2023-05-01T08:26:25.219Z,14.21
2023-05-01T08:28:53.203Z,14.34
2023-05-01T08:31:21.408Z,14.57
2023-05-01T08:33:49.598Z,14.48
2023-05-01T08:36:21.254Z,14.87
2023-05-01T08:38:49.478Z,14.60
2023-05-01T08:41:17.932Z,15.39
2023-05-01T08:43:45.958Z,15.65
2023-05-01T08:46:16.828Z,15.70
2023-05-01T08:48:46.970Z,14.85
2023-05-01T08:51:22.996Z,15.32
2023-05-01T08:53:54.112Z,15.86
2023-05-01T08:56:24.055Z,16.29
2023-05-01T08:58:55.309Z,16.00
2023-05-01T09:01:24.595Z,15.61
2023-05-01T09:03:54.836Z,15.33
2023-05-01T09:06:25.854Z,15.45
2023-05-01T09:08:54.050Z,15.95
2023-05-01T09:11:25.390Z,15.93
2023-05-01T09:13:55.931Z,16.85
2023-05-01T09:16:24.772Z,16.78
2023-05-01T09:18:56.497Z,17.42
2023-05-01T09:21:29.324Z,16.70
2023-05-01T09:23:57.439Z,17.04
2023-05-01T09:26:26.877Z,17.17
2023-05-01T09:28:58.065Z,17.74
2023-05-01T09:31:29.080Z,16.29
2023-05-01T09:33:59.510Z,17.04
2023-05-01T09:36:34.821Z,16.26
2023-05-01T09:39:06.007Z,15.81
2023-05-01T09:41:39.237Z,16.32
2023-05-01T09:44:22.065Z,15.72
2023-05-01T09:47:12.670Z,16.38
2023-05-01T09:49:53.952Z,15.60
2023-05-01T09:52:37.340Z,16.33
2023-05-01T09:55:18.524Z,17.61
2023-05-01T09:57:59.753Z,16.60
2023-05-01T10:00:31.115Z,17.50
2023-05-01T10:02:59.195Z,18.43
2023-05-01T10:05:44.170Z,18.25
2023-05-01T10:08:15.142Z,16.55
2023-05-01T10:10:47.153Z,17.33
2023-05-01T10:13:16.139Z,16.37
2023-05-01T10:15:47.671Z,16.83
2023-05-01T10:18:34.341Z,16.84
2023-05-01T10:21:17.100Z,17.62
2023-05-01T10:23:48.029Z,17.90
2023-05-01T10:26:19.581Z,17.49
2023-05-01T10:28:49.548Z,17.92
2023-05-01T10:31:19.441Z,18.06
2023-05-01T10:33:48.646Z,17.79
2023-05-01T10:36:23.073Z,17.89
2023-05-01T10:38:54.185Z,18.48
2023-05-01T10:41:55.604Z,17.50
2023-05-01T10:44:25.728Z,17.48
2023-05-01T10:46:56.073Z,17.28
2023-05-01T10:49:24.529Z,17.29
2023-05-01T10:52:03.776Z,18.06
2023-05-01T10:54:33.155Z,17.61
2023-05-01T10:57:03.543Z,17.67
2023-05-01T11:00:11.204Z,17.85
2023-05-01T11:02:39.469Z,17.88
2023-05-01T11:05:08.080Z,17.49
2023-05-01T11:07:36.240Z,17.80
2023-05-01T11:10:28.778Z,18.08
2023-05-01T11:12:56.918Z,18.37
2023-05-01T11:15:32.306Z,18.18
2023-05-01T11:18:00.999Z,18.52
2023-05-01T11:20:51.729Z,17.58
2023-05-01T11:23:22.133Z,17.32
2023-05-01T11:25:51.704Z,18.69
2023-05-01T11:28:22.957Z,19.32
2023-05-01T11:30:51.620Z,18.24
2023-05-01T11:33:27.626Z,18.53
2023-05-01T11:36:03.192Z,18.93
2023-05-01T11:38:31.092Z,18.53
2023-05-01T11:41:05.586Z,18.83
2023-05-01T11:43:34.134Z,18.46
2023-05-01T11:46:05.178Z,18.26
2023-05-01T11:48:33.466Z,18.71
2023-05-01T11:51:01.619Z,18.27
2023-05-01T11:53:30.349Z,18.64
2023-05-01T11:55:59.472Z,18.29
2023-05-01T11:58:36.619Z,17.56
2023-05-01T12:01:07.255Z,17.73
2023-05-01T12:03:43.123Z,17.53
2023-05-01T12:06:15.051Z,18.24
2023-05-01T12:08:45.526Z,18.62
2023-05-01T12:11:13.774Z,18.96
2023-05-01T12:13:43.975Z,19.35
2023-05-01T12:16:12.184Z,18.45
2023-05-01T12:18:42.155Z,19.05
2023-05-01T12:21:25.811Z,18.24
2023-05-01T12:23:56.254Z,20.08
2023-05-01T12:26:26.288Z,19.35
2023-05-01T12:28:58.254Z,19.05
2023-05-01T12:31:27.510Z,19.59
2023-05-01T12:33:58.619Z,19.24
2023-05-01T12:36:29.439Z,20.05
2023-05-01T12:39:00.742Z,19.95
2023-05-01T12:41:39.188Z,19.28
2023-05-01T12:44:23.921Z,20.44
2023-05-01T12:46:56.437Z,20.05
2023-05-01T12:49:26.002Z,20.58
2023-05-01T12:51:55.456Z,19.56
2023-05-01T12:54:26.370Z,18.47
2023-05-01T12:57:06.583Z,19.38
2023-05-01T12:59:37.462Z,19.23
2023-05-01T13:02:07.124Z,18.86
2023-05-01T13:04:37.827Z,18.31
2023-05-01T13:07:12.651Z,17.81
2023-05-01T13:09:53.178Z,18.96
2023-05-01T13:12:21.473Z,18.87
2023-05-01T13:14:51.806Z,18.45
2023-05-01T13:17:26.049Z,19.39
2023-05-01T13:19:55.916Z,18.69
2023-05-01T13:22:32.438Z,18.50
2023-05-01T13:25:01.387Z,18.39
2023-05-01T13:27:29.860Z,18.59
2023-05-01T13:30:01.183Z,18.75
2023-05-01T13:32:33.113Z,19.19
2023-05-01T13:35:03.221Z,18.68
2023-05-01T13:37:32.524Z,17.91
2023-05-01T13:40:00.808Z,18.41
2023-05-01T13:42:29.131Z,18.52
2023-05-01T13:45:06.261Z,18.94
2023-05-01T13:47:34.442Z,19.02
2023-05-01T13:50:02.690Z,19.06
2023-05-01T13:52:33.550Z,19.15
2023-05-01T13:55:08.465Z,18.27
2023-05-01T13:57:40.562Z,18.33
2023-05-01T14:00:17.541Z,18.91
2023-05-01T14:02:48.394Z,19.00
2023-05-01T14:05:17.283Z,19.02
2023-05-01T14:07:52.035Z,19.02
2023-05-01T14:10:20.478Z,18.82
2023-05-01T14:12:48.649Z,18.76
2023-05-01T14:15:18.937Z,19.04
2023-05-01T14:17:48.530Z,19.20
2023-05-01T14:20:18.141Z,19.44
2023-05-01T14:22:51.681Z,19.62
2023-05-01T14:25:27.468Z,19.20
2023-05-01T14:27:56.666Z,19.48
2023-05-01T14:30:30.084Z,19.89
2023-05-01T14:32:58.335Z,20.01
2023-05-01T14:35:26.540Z,19.14
2023-05-01T14:37:55.511Z,19.75
2023-05-01T14:40:33.876Z,18.51
2023-05-01T14:43:02.687Z,18.48
2023-05-01T14:45:32.441Z,19.15
2023-05-01T14:48:00.558Z,18.05
2023-05-01T14:50:28.680Z,18.15
2023-05-01T14:52:57.935Z,18.06
2023-05-01T14:55:29.410Z,18.54
2023-05-01T14:57:58.268Z,19.13
2023-05-01T15:00:26.798Z,18.50
2023-05-01T15:02:56.482Z,17.58
2023-05-01T15:05:26.178Z,18.22
2023-05-01T15:07:56.445Z,18.04
2023-05-01T15:10:24.915Z,17.76
2023-05-01T15:12:53.286Z,18.03
2023-05-01T15:15:21.936Z,18.38
2023-05-01T15:17:52.230Z,18.39
2023-05-01T15:20:21.842Z,18.21
2023-05-01T15:22:49.843Z,18.26
2023-05-01T15:25:18.464Z,18.57
2023-05-01T15:27:47.229Z,18.79
2023-05-01T15:30:16.165Z,18.46
2023-05-01T15:32:44.206Z,18.78
2023-05-01T15:35:12.904Z,18.77
2023-05-01T15:37:44.005Z,18.91
2023-05-01T15:40:12.372Z,18.89
2023-05-01T15:42:41.727Z,18.67
2023-05-01T15:45:11.988Z,18.82
2023-05-01T15:47:41.684Z,18.35
2023-05-01T15:50:13.442Z,18.51
2023-05-01T15:52:44.945Z,18.43
2023-05-01T15:55:17.423Z,18.62
2023-05-01T15:58:03.811Z,18.54
2023-05-01T16:00:39.258Z,18.63
2023-05-01T16:03:23.937Z,18.78
2023-05-01T16:06:19.932Z,18.23
2023-05-01T16:08:54.236Z,17.94
2023-05-01T16:11:30.017Z,18.25
2023-05-01T16:14:20.837Z,18.35
2023-05-01T16:16:58.059Z,18.49
2023-05-01T16:19:38.722Z,18.02
2023-05-01T16:22:23.553Z,17.92
2023-05-01T16:25:05.980Z,17.97
2023-05-01T16:27:34.751Z,17.73
2023-05-01T16:30:10.167Z,17.88
2023-05-01T16:32:41.872Z,17.76
2023-05-01T16:35:13.265Z,17.55
2023-05-01T16:37:48.828Z,17.50
2023-05-01T16:40:20.665Z,16.95
2023-05-01T16:42:51.895Z,16.52
2023-05-01T16:45:21.813Z,16.28
2023-05-01T16:47:50.181Z,14.83
2023-05-01T16:50:20.588Z,15.37
2023-05-01T16:52:50.342Z,15.77
2023-05-01T16:55:21.264Z,15.70
2023-05-01T16:57:50.123Z,15.56
2023-05-01T17:00:21.485Z,15.48
2023-05-01T17:02:54.153Z,15.33
2023-05-01T17:05:24.317Z,15.47
2023-05-01T17:07:53.642Z,15.28
2023-05-01T17:10:26.081Z,14.99
2023-05-01T17:12:54.913Z,14.99
2023-05-01T17:15:24.034Z,15.11
2023-05-01T17:17:52.521Z,15.10
2023-05-01T17:20:21.387Z,14.85
2023-05-01T17:22:50.041Z,14.89
2023-05-01T17:25:19.817Z,14.97
2023-05-01T17:27:51.755Z,14.81
2023-05-01T17:30:21.225Z,15.00
2023-05-01T17:32:51.516Z,15.37
2023-05-01T17:35:19.807Z,15.23
2023-05-01T17:37:48.742Z,15.38
2023-05-01T17:40:16.848Z,15.47
2023-05-01T17:42:45.597Z,15.53
2023-05-01T17:45:20.552Z,15.46
2023-05-01T17:47:54.118Z,15.40
2023-05-01T17:50:29.285Z,15.51
2023-05-01T17:53:18.557Z,15.56
2023-05-01T17:55:46.799Z,15.39
2023-05-01T17:58:14.992Z,15.64
2023-05-01T18:00:44.386Z,15.60
2023-05-01T18:03:13.595Z,15.62
2023-05-01T18:05:56.568Z,15.21
2023-05-01T18:08:24.572Z,15.15
2023-05-01T18:10:52.667Z,14.96
2023-05-01T18:13:27.735Z,15.09
2023-05-01T18:15:58.657Z,14.94
2023-05-01T18:18:26.752Z,14.89
2023-05-01T18:20:55.263Z,14.89
2023-05-01T18:23:26.063Z,15.09
2023-05-01T18:25:56.222Z,14.96
2023-05-01T18:28:24.330Z,15.03
2023-05-01T18:30:52.914Z,15.11
2023-05-01T18:33:23.192Z,15.05
2023-05-01T18:35:51.404Z,14.99
2023-05-01T18:38:19.876Z,15.00
2023-05-01T18:40:48.808Z,14.74
2023-05-01T18:43:16.961Z,14.63
2023-05-01T18:45:47.204Z,14.69
2023-05-01T18:48:16.206Z,14.75
2023-05-01T18:51:06.732Z,14.78
2023-05-01T18:53:39.615Z,14.61
2023-05-01T18:56:09.597Z,14.67
2023-05-01T18:58:39.313Z,14.55
2023-05-01T19:01:07.834Z,14.55
2023-05-01T19:03:36.392Z,14.40
2023-05-01T19:06:10.593Z,14.51
2023-05-01T19:08:39.266Z,14.48
2023-05-01T19:11:07.424Z,14.55
2023-05-01T19:13:35.702Z,14.61
2023-05-01T19:16:10.208Z,14.59
2023-05-01T19:19:02.590Z,14.57
2023-05-01T19:21:32.339Z,14.29
2023-05-01T19:24:00.683Z,14.10
2023-05-01T19:26:29.637Z,14.19
2023-05-01T19:29:02.488Z,14.20
2023-05-01T19:31:36.476Z,14.22
2023-05-01T19:34:04.846Z,14.17
2023-05-01T19:36:34.498Z,14.21
2023-05-01T19:39:04.294Z,14.14
2023-05-01T19:41:33.699Z,14.06
2023-05-01T19:44:02.408Z,13.49
2023-05-01T19:46:30.564Z,13.22
2023-05-01T19:48:58.837Z,13.38
2023-05-01T19:51:26.806Z,13.70
2023-05-01T19:53:56.994Z,13.44
2023-05-01T19:56:25.660Z,13.28
2023-05-01T19:58:54.990Z,13.17
2023-05-01T20:01:23.164Z,13.36
2023-05-01T20:03:51.716Z,13.06
2023-05-01T20:06:20.061Z,13.07
2023-05-01T20:08:48.689Z,13.10
2023-05-01T20:11:20.802Z,13.36
2023-05-01T20:13:48.718Z,13.37
2023-05-01T20:16:17.078Z,13.33
2023-05-01T20:18:45.575Z,13.27
2023-05-01T20:21:13.585Z,13.15
2023-05-01T20:23:42.115Z,13.21
2023-05-01T20:26:13.075Z,13.05
2023-05-01T20:28:42.635Z,13.05
2023-05-01T20:31:10.974Z,13.23
2023-05-01T20:33:38.920Z,13.25
2023-05-01T20:36:07.445Z,13.18
2023-05-01T20:38:42.068Z,12.94
2023-05-01T20:41:12.663Z,13.08
2023-05-01T20:43:42.279Z,13.18
2023-05-01T20:46:10.388Z,13.17
2023-05-01T20:48:38.688Z,13.24
2023-05-01T20:51:06.628Z,13.10
2023-05-01T20:53:34.831Z,13.03
2023-05-01T20:56:03.056Z,13.03
2023-05-01T20:58:31.497Z,13.14
2023-05-01T21:01:02.010Z,13.21
2023-05-01T21:03:30.191Z,13.32
2023-05-01T21:06:02.357Z,13.33
2023-05-01T21:08:31.619Z,13.13
2023-05-01T21:11:02.441Z,13.11
2023-05-01T21:13:33.505Z,13.13
2023-05-01T21:16:05.599Z,13.12
2023-05-01T21:18:35.400Z,13.15
2023-05-01T21:21:03.785Z,13.16
2023-05-01T21:23:31.851Z,13.07
2023-05-01T21:26:00.253Z,13.04
2023-05-01T21:28:28.479Z,13.06
2023-05-01T21:30:56.522Z,13.07
2023-05-01T21:33:26.162Z,13.07
2023-05-01T21:35:54.236Z,13.10
2023-05-01T21:38:22.526Z,13.15
2023-05-01T21:40:50.535Z,13.17
2023-05-01T21:43:20.679Z,13.07
2023-05-01T21:45:49.527Z,13.09
2023-05-01T21:48:20.394Z,13.07
2023-05-01T21:50:51.321Z,13.02
2023-05-01T21:53:19.655Z,12.88
2023-05-01T21:55:47.899Z,12.73
2023-05-01T21:58:16.473Z,12.79
2023-05-01T22:00:44.424Z,12.73
2023-05-01T22:03:13.477Z,12.61
2023-05-01T22:05:42.090Z,12.62
2023-05-01T22:08:11.732Z,12.60
2023-05-01T22:10:41.054Z,12.59
2023-05-01T22:13:08.982Z,12.36
2023-05-01T22:15:36.840Z,12.23
2023-05-01T22:18:04.990Z,12.17
2023-05-01T22:20:33.388Z,12.27
2023-05-01T22:23:01.534Z,12.21
2023-05-01T22:25:30.981Z,12.24
2023-05-01T22:28:00.554Z,12.11
2023-05-01T22:30:29.130Z,12.27
2023-05-01T22:32:57.296Z,12.31
2023-05-01T22:35:25.458Z,12.21
2023-05-01T22:37:56.125Z,12.20
2023-05-01T22:40:24.153Z,12.01
2023-05-01T22:42:53.593Z,12.01
2023-05-01T22:45:21.893Z,11.90
2023-05-01T22:47:50.097Z,11.71
2023-05-01T22:50:18.359Z,11.70
2023-05-01T22:52:47.001Z,11.79
2023-05-01T22:55:16.184Z,11.71
2023-05-01T22:57:44.624Z,11.54
2023-05-01T23:00:15.273Z,11.74
2023-05-01T23:02:43.611Z,11.60
2023-05-01T23:05:14.083Z,11.68
2023-05-01T23:07:42.762Z,11.72
2023-05-01T23:10:11.313Z,11.65
2023-05-01T23:12:43.428Z,11.64
2023-05-01T23:15:17.223Z,11.53
2023-05-01T23:17:45.607Z,11.19
2023-05-01T23:20:19.949Z,11.24
2023-05-01T23:22:48.721Z,10.95
2023-05-01T23:25:24.087Z,10.97
2023-05-01T23:27:54.105Z,10.77
2023-05-01T23:30:24.060Z,10.94
2023-05-01T23:32:52.434Z,11.12
2023-05-01T23:35:24.356Z,11.27
2023-05-01T23:37:52.681Z,11.34
2023-05-01T23:40:20.772Z,11.18
2023-05-01T23:42:49.901Z,11.14
2023-05-01T23:45:18.075Z,11.16
2023-05-01T23:47:47.734Z,11.31
2023-05-01T23:50:15.960Z,11.31
2023-05-01T23:52:44.036Z,11.32
2023-05-01T23:55:12.111Z,11.23
2023-05-01T23:57:42.875Z,11.06
